Time;durP1;ratioP1;P1;durP2;ratioP2;P2;SDS_P1;SDS_P2;PMS_P1;PMS_P2;Temp;Humidity;BMP_temperature;BMP_pressure;BME280_temperature;BME280_humidity;BME280_pressure;Samples;Min_cycle;Max_cycle;Signal;HPM_P1;HPM_P2
2022/06/24 00:00:33;;;;;;;4.40;2.25;;;21.30;93.30;;;;;;6269455;28;20045;-71
2022/06/24 00:03:35;;;;;;;2.85;2.40;;;21.10;93.50;;;;;;6260689;28;20053;-70
2022/06/24 00:06:47;;;;;;;3.33;2.42;;;21.10;93.60;;;;;;6265175;28;20053;-70
2022/06/24 00:09:51;;;;;;;3.63;2.65;;;21.10;93.90;;;;;;6264294;28;20566;-70
2022/06/24 00:12:53;;;;;;;3.63;2.47;;;21.10;93.50;;;;;;6274388;28;20060;-70
2022/06/24 00:16:02;;;;;;;4.20;2.42;;;21.00;93.90;;;;;;6274791;28;20057;-70
2022/06/24 00:19:11;;;;;;;3.88;2.30;;;21.00;93.90;;;;;;6275809;28;20045;-70
2022/06/24 00:22:13;;;;;;;3.42;2.35;;;21.10;94.30;;;;;;6268112;28;20092;-70
2022/06/24 00:25:19;;;;;;;7.60;2.67;;;21.10;94.10;;;;;;6274707;28;20124;-70
2022/06/24 00:28:26;;;;;;;4.05;2.50;;;21.10;94.20;;;;;;6274154;28;20045;-70
2022/06/24 00:31:28;;;;;;;3.40;2.20;;;21.10;93.60;;;;;;6273615;28;20037;-70
2022/06/24 00:34:30;;;;;;;5.95;2.63;;;21.10;93.90;;;;;;6273979;28;20057;-70
2022/06/24 00:37:33;;;;;;;3.53;2.75;;;21.10;93.60;;;;;;6270502;28;20045;-70
2022/06/24 00:40:37;;;;;;;5.30;2.38;;;21.00;93.60;;;;;;6268758;28;20041;-70
2022/06/24 00:43:40;;;;;;;6.32;2.47;;;21.00;94.10;;;;;;6265209;28;20060;-70
2022/06/24 00:46:44;;;;;;;4.88;2.65;;;21.00;94.20;;;;;;6255099;28;20084;-70
2022/06/24 00:49:48;;;;;;;3.78;2.25;;;21.00;93.90;;;;;;6274395;28;20057;-70
2022/06/24 00:52:53;;;;;;;3.75;2.60;;;21.00;94.20;;;;;;6274709;28;20076;-70
2022/06/24 00:55:56;;;;;;;4.05;2.38;;;20.90;93.90;;;;;;6272899;28;20068;-70
2022/06/24 00:59:01;;;;;;;5.30;3.10;;;20.80;93.90;;;;;;6274303;28;20056;-70
2022/06/24 01:02:06;;;;;;;3.75;2.78;;;20.60;94.00;;;;;;6274118;28;20060;-70
2022/06/24 01:05:09;;;;;;;6.75;2.92;;;20.50;94.80;;;;;;6273154;28;20056;-70
2022/06/24 01:08:12;;;;;;;4.57;2.78;;;20.50;94.70;;;;;;6275324;28;20048;-71
2022/06/24 01:11:23;;;;;;;3.42;2.88;;;20.30;94.80;;;;;;6272666;28;20052;-70
2022/06/24 01:14:25;;;;;;;5.90;2.97;;;20.40;94.60;;;;;;6272248;28;20526;-70
2022/06/24 01:17:27;;;;;;;6.68;3.50;;;20.30;94.80;;;;;;6274389;28;20055;-70
2022/06/24 01:20:29;;;;;;;7.88;3.30;;;20.10;95.20;;;;;;6271976;28;20119;-70
2022/06/24 01:23:33;;;;;;;6.28;3.20;;;20.10;95.20;;;;;;6272265;28;20428;-70
2022/06/24 01:26:35;;;;;;;4.70;3.30;;;19.90;95.40;;;;;;6274754;28;20052;-69
2022/06/24 01:29:37;;;;;;;3.65;3.10;;;19.80;95.70;;;;;;6258610;28;20053;-71
2022/06/24 01:32:39;;;;;;;4.30;3.33;;;19.70;96.00;;;;;;6272851;28;20053;-70
2022/06/24 01:35:41;;;;;;;3.58;3.25;;;19.60;96.50;;;;;;6274018;28;20055;-71
2022/06/24 01:38:44;;;;;;;5.68;4.43;;;19.60;96.50;;;;;;6273159;28;20041;-70
2022/06/24 01:41:46;;;;;;;4.35;2.92;;;19.50;96.50;;;;;;6271697;28;20041;-70
2022/06/24 01:44:48;;;;;;;5.25;3.55;;;19.50;96.90;;;;;;6272177;28;20056;-70
2022/06/24 01:47:50;;;;;;;4.75;3.70;;;19.40;96.90;;;;;;6259389;28;20111;-70
2022/06/24 01:50:52;;;;;;;4.47;4.07;;;19.30;96.90;;;;;;6272212;28;20072;-70
2022/06/24 01:53:56;;;;;;;5.28;3.80;;;19.30;97.30;;;;;;6270330;28;20056;-70
2022/06/24 01:56:58;;;;;;;;;;;19.30;97.20;;;;;;6274221;28;20049;-70
2022/06/24 02:00:00;;;;;;;6.40;3.63;;;19.20;97.40;;;;;;6273224;28;19928;-70
2022/06/24 02:03:05;;;;;;;3.88;3.47;;;19.30;97.50;;;;;;6269395;28;20041;-71
2022/06/24 02:06:09;;;;;;;6.45;3.50;;;19.30;97.90;;;;;;6273584;28;20056;-70
2022/06/24 02:09:16;;;;;;;4.25;3.63;;;19.30;97.70;;;;;;6271712;28;20415;-70
2022/06/24 02:15:37;;;;;;;4.78;3.53;;;19.10;98.10;;;;;;6272193;28;20068;-70
2022/06/24 02:18:40;;;;;;;5.40;3.58;;;19.20;98.30;;;;;;6272848;28;20128;-70
2022/06/24 02:21:41;;;;;;;4.20;3.80;;;19.20;98.30;;;;;;6267343;28;20044;-70
2022/06/24 02:24:45;;;;;;;4.50;3.55;;;19.10;98.30;;;;;;6263490;28;20045;-70
2022/06/24 02:27:47;;;;;;;5.10;3.40;;;19.00;98.60;;;;;;6269936;28;20511;-70
2022/06/24 02:30:52;;;;;;;4.63;3.08;;;19.10;98.90;;;;;;6272136;28;20055;-70
2022/06/24 02:33:54;;;;;;;5.72;3.50;;;19.20;98.60;;;;;;6270597;28;20099;-70
2022/06/24 02:36:56;;;;;;;4.40;3.35;;;19.20;98.20;;;;;;6267318;28;20407;-70
2022/06/24 02:40:45;;;;;;;6.10;3.60;;;19.20;98.50;;;;;;6272940;28;20068;-70
2022/06/24 02:43:24;;;;;;;5.88;3.72;;;19.30;98.60;;;;;;6271668;28;20049;-70
2022/06/24 02:46:26;;;;;;;3.97;2.78;;;19.60;98.30;;;;;;6272717;28;20061;-70
2022/06/24 02:49:27;;;;;;;5.35;3.67;;;19.70;98.20;;;;;;6270155;28;20057;-70
2022/06/24 02:52:29;;;;;;;3.58;2.72;;;19.80;97.70;;;;;;6271824;28;20060;-71
2022/06/24 02:55:33;;;;;;;4.20;3.80;;;19.80;98.10;;;;;;6260371;28;20049;-70
2022/06/24 02:58:35;;;;;;;3.60;2.47;;;19.80;97.50;;;;;;6271851;28;20036;-71
2022/06/24 03:01:37;;;;;;;4.40;3.30;;;19.60;98.50;;;;;;6270688;28;20389;-70
2022/06/24 03:04:39;;;;;;;4.28;3.25;;;19.70;98.40;;;;;;6271069;28;20515;-71
2022/06/24 03:07:41;;;;;;;5.18;3.70;;;19.70;97.80;;;;;;6264837;28;20049;-70
2022/06/24 03:10:44;;;;;;;5.20;3.90;;;19.80;97.90;;;;;;6262622;28;20044;-71
2022/06/24 03:13:46;;;;;;;4.32;2.92;;;19.70;97.70;;;;;;6267462;28;20076;-71
2022/06/24 03:16:48;;;;;;;5.32;4.00;;;19.70;98.20;;;;;;6271885;28;20060;-70
2022/06/24 03:19:50;;;;;;;3.63;3.25;;;19.60;98.00;;;;;;6269060;28;20060;-71
2022/06/24 03:22:52;;;;;;;4.00;3.47;;;19.60;98.20;;;;;;6271871;28;20049;-70
2022/06/24 03:25:55;;;;;;;5.82;3.35;;;19.60;98.30;;;;;;6270861;28;20064;-70
2022/06/24 03:28:57;;;;;;;4.07;3.65;;;19.60;98.30;;;;;;6261424;28;20132;-71
2022/06/24 03:31:59;;;;;;;5.13;4.00;;;19.40;98.70;;;;;;6270241;28;20053;-70
2022/06/24 03:35:01;;;;;;;5.65;4.10;;;19.30;98.50;;;;;;6269960;28;20488;-70
2022/06/24 03:38:04;;;;;;;2.83;2.50;;;19.00;98.90;;;;;;6270676;28;20119;-71
2022/06/24 03:41:07;;;;;;;4.00;2.50;;;18.80;99.90;;;;;;6270742;28;20487;-71
2022/06/24 03:44:09;;;;;;;6.47;4.30;;;19.00;99.90;;;;;;6264006;28;20059;-70
2022/06/24 03:47:11;;;;;;;4.85;3.25;;;19.20;99.40;;;;;;6268598;28;20057;-70
2022/06/24 03:50:13;;;;;;;3.60;2.58;;;19.30;99.60;;;;;;6270567;28;20492;-70
2022/06/24 03:53:15;;;;;;;6.25;4.25;;;19.50;99.60;;;;;;6271266;28;20049;-70
2022/06/24 03:56:18;;;;;;;5.85;4.10;;;19.50;98.80;;;;;;6268974;28;20431;-71
2022/06/24 03:59:20;;;;;;;6.97;4.00;;;19.60;99.00;;;;;;6271787;28;20057;-71
2022/06/24 04:02:23;;;;;;;5.47;4.05;;;19.60;98.90;;;;;;6267978;28;20047;-71
2022/06/24 04:05:25;;;;;;;4.65;4.00;;;19.50;99.00;;;;;;6270860;28;20045;-71
2022/06/24 04:08:27;;;;;;;5.15;4.65;;;19.50;98.90;;;;;;6266218;28;20044;-70
2022/06/24 04:11:30;;;;;;;5.20;4.35;;;19.40;99.40;;;;;;6270172;28;20056;-70
2022/06/24 04:17:51;;;;;;;6.55;4.07;;;19.60;99.10;;;;;;6270731;28;20499;-71
2022/06/24 04:20:53;;;;;;;7.10;4.20;;;19.60;99.40;;;;;;6270396;28;20491;-71
2022/06/24 04:23:55;;;;;;;4.85;4.18;;;19.60;99.70;;;;;;6269989;28;20487;-71
2022/06/24 04:26:58;;;;;;;5.93;3.92;;;19.70;99.70;;;;;;6269466;28;20064;-71
2022/06/24 04:30:01;;;;;;;6.15;4.60;;;19.70;99.50;;;;;;6269608;28;20053;-74
2022/06/24 04:33:03;;;;;;;4.70;4.20;;;19.60;99.80;;;;;;6270668;28;20132;-74
2022/06/24 04:36:10;;;;;;;8.75;4.68;;;19.50;99.90;;;;;;6264349;28;20103;-75
2022/06/24 04:39:12;;;;;;;3.85;3.47;;;19.40;99.90;;;;;;6270585;28;20525;-74
2022/06/24 04:42:15;;;;;;;4.53;4.10;;;19.50;99.90;;;;;;6268808;28;20049;-75
2022/06/24 04:45:18;;;;;;;6.22;3.53;;;19.70;99.80;;;;;;6270485;28;20053;-75
2022/06/24 04:48:20;;;;;;;5.82;3.63;;;19.90;99.90;;;;;;6266266;28;20060;-74
2022/06/24 04:51:22;;;;;;;3.95;3.58;;;20.10;99.60;;;;;;6246234;28;20050;-74
2022/06/24 04:54:24;;;;;;;5.35;3.88;;;20.20;99.90;;;;;;6263673;28;20056;-74
2022/06/24 04:57:27;;;;;;;5.55;3.72;;;20.30;99.50;;;;;;6272246;28;20400;-74
2022/06/24 05:00:29;;;;;;;5.90;4.20;;;20.20;99.90;;;;;;6274382;28;20060;-74
2022/06/24 05:03:31;;;;;;;4.13;3.13;;;20.10;99.90;;;;;;6275336;28;20406;-74
2022/06/24 05:06:33;;;;;;;4.68;4.20;;;20.10;99.90;;;;;;6274098;28;20048;-74
2022/06/24 05:09:35;;;;;;;3.22;2.75;;;20.30;99.70;;;;;;6266845;28;20515;-74
2022/06/24 05:12:38;;;;;;;5.68;3.85;;;20.60;99.70;;;;;;6268813;28;20420;-74
2022/06/24 05:15:40;;;;;;;6.88;4.05;;;20.80;99.90;;;;;;6273431;28;20053;-74
2022/06/24 05:18:42;;;;;;;3.35;2.70;;;20.80;99.90;;;;;;6272499;28;20605;-74
2022/06/24 05:21:44;;;;;;;4.22;3.83;;;20.70;99.80;;;;;;6270302;28;20060;-74
2022/06/24 05:24:46;;;;;;;3.33;3.03;;;20.80;99.80;;;;;;6273433;28;20415;-74
2022/06/24 05:27:49;;;;;;;6.63;4.40;;;20.90;99.50;;;;;;6262357;28;20049;-75
2022/06/24 05:30:56;;;;;;;11.95;4.13;;;20.90;99.70;;;;;;6273006;28;20473;-74
2022/06/24 05:33:57;;;;;;;6.70;4.53;;;20.60;99.90;;;;;;6274288;28;20056;-74
2022/06/24 05:36:59;;;;;;;5.82;4.57;;;20.40;99.90;;;;;;6273143;28;20492;-74
2022/06/24 05:40:02;;;;;;;5.85;4.63;;;20.40;99.90;;;;;;6272084;28;20075;-74
2022/06/24 05:43:05;;;;;;;6.57;5.10;;;20.60;99.90;;;;;;6270845;28;20052;-74
2022/06/24 05:46:07;;;;;;;6.32;4.60;;;20.60;99.90;;;;;;6272679;28;20411;-74
2022/06/24 05:49:09;;;;;;;5.35;3.80;;;20.40;99.90;;;;;;6273948;28;20076;-74
2022/06/24 05:52:11;;;;;;;7.78;4.35;;;20.30;99.90;;;;;;6267957;28;20518;-75
2022/06/24 05:55:12;;;;;;;5.32;3.90;;;20.40;99.90;;;;;;6250401;28;20057;-74
2022/06/24 05:58:15;;;;;;;3.13;2.83;;;20.40;99.90;;;;;;6254178;28;20618;-74
2022/06/24 06:01:17;;;;;;;;;;;20.80;99.90;;;;;;6260422;28;20060;-74
2022/06/24 06:04:20;;;;;;;7.72;3.67;;;20.80;99.90;;;;;;6268681;28;20314;-75
2022/06/24 06:07:23;;;;;;;6.30;4.13;;;20.90;99.90;;;;;;6273005;28;20072;-72
2022/06/24 06:10:24;;;;;;;26.97;5.77;;;21.10;99.90;;;;;;6268631;28;21939;-72
2022/06/24 06:13:28;;;;;;;15.65;6.38;;;21.20;99.90;;;;;;6271022;28;20499;-73
2022/06/24 06:16:30;;;;;;;9.43;6.35;;;21.20;99.90;;;;;;6259429;28;20526;-73
2022/06/24 06:19:34;;;;;;;12.68;7.40;;;21.00;99.90;;;;;;6256777;28;20057;-73
2022/06/24 06:22:36;;;;;;;13.15;5.32;;;20.80;99.90;;;;;;6269733;28;20492;-72
2022/06/24 06:25:38;;;;;;;11.85;6.80;;;20.50;99.90;;;;;;6264751;28;20052;-71
2022/06/24 06:28:42;;;;;;;10.40;6.30;;;20.50;99.90;;;;;;6269153;28;20044;-72
2022/06/24 06:31:44;;;;;;;11.52;6.00;;;20.50;99.90;;;;;;6246561;28;20519;-71
2022/06/24 06:34:46;;;;;;;11.93;7.80;;;20.50;99.90;;;;;;6247483;28;20057;-72
2022/06/24 06:37:48;;;;;;;9.32;6.55;;;20.30;99.90;;;;;;6280664;28;20522;-72
2022/06/24 06:40:50;;;;;;;7.93;5.00;;;20.30;99.90;;;;;;6267727;28;20135;-72
2022/06/24 06:43:53;;;;;;;10.20;4.70;;;20.40;99.90;;;;;;6270718;28;20045;-72
2022/06/24 06:46:55;;;;;;;9.80;8.13;;;20.50;99.90;;;;;;6271900;28;20055;-72
2022/06/24 06:49:57;;;;;;;10.50;8.38;;;20.40;99.90;;;;;;6269508;28;20503;-72
2022/06/24 06:52:59;;;;;;;12.23;9.13;;;20.10;99.90;;;;;;6270818;28;20048;-72
2022/06/24 06:56:01;;;;;;;11.73;7.20;;;19.80;99.90;;;;;;6270259;28;20146;-72
2022/06/24 06:59:05;;;;;;;10.50;9.02;;;19.60;99.90;;;;;;6266711;28;20426;-72
2022/06/24 07:02:07;;;;;;;13.20;9.90;;;19.50;99.90;;;;;;6271752;28;20496;-73
2022/06/24 07:05:09;;;;;;;12.25;9.32;;;19.50;99.90;;;;;;6271380;28;20056;-72
2022/06/24 07:08:12;;;;;;;11.95;7.75;;;19.50;99.90;;;;;;6268352;28;20451;-73
2022/06/24 07:11:14;;;;;;;10.65;7.25;;;19.60;99.90;;;;;;6261048;28;20056;-72
2022/06/24 07:14:17;;;;;;;9.18;7.20;;;19.60;99.90;;;;;;6270113;28;20059;-72
2022/06/24 07:17:19;;;;;;;12.30;8.18;;;19.80;99.90;;;;;;6260299;28;20057;-72
2022/06/24 07:20:21;;;;;;;11.65;10.15;;;19.90;99.90;;;;;;6266922;28;20053;-73
2022/06/24 07:23:23;;;;;;;9.35;6.95;;;19.90;99.90;;;;;;6267996;28;20132;-71
2022/06/24 07:26:25;;;;;;;12.98;9.00;;;20.00;99.90;;;;;;6266345;28;20057;-71
2022/06/24 07:29:28;;;;;;;11.40;10.23;;;20.20;99.90;;;;;;6277947;28;20395;-71
2022/06/24 07:32:30;;;;;;;11.60;9.02;;;20.40;99.90;;;;;;6263404;28;20049;-77
2022/06/24 07:35:33;;;;;;;19.08;13.70;;;20.50;99.90;;;;;;6264808;28;20675;-72
2022/06/24 07:38:38;;;;;;;17.60;13.70;;;20.50;99.90;;;;;;6265306;28;20041;-72
2022/06/24 07:41:40;;;;;;;18.65;13.50;;;20.60;99.90;;;;;;6269095;28;20472;-72
2022/06/24 07:44:44;;;;;;;16.27;12.75;;;20.60;99.90;;;;;;6266912;28;20060;-72
2022/06/24 07:47:46;;;;;;;13.43;8.52;;;20.50;99.90;;;;;;6270646;28;20401;-72
2022/06/24 07:50:48;;;;;;;11.07;8.38;;;20.50;99.90;;;;;;6270886;28;20049;-71
2022/06/24 07:53:50;;;;;;;10.77;7.35;;;20.70;99.90;;;;;;6260355;28;20488;-72
2022/06/24 07:56:58;;;;;;;14.85;9.88;;;20.90;99.90;;;;;;6256371;28;20052;-73
2022/06/24 08:00:01;;;;;;;17.25;14.05;;;21.00;99.90;;;;;;6257174;28;20570;-71
2022/06/24 08:03:03;;;;;;;18.73;13.65;;;21.20;99.90;;;;;;6256107;28;20041;-71
2022/06/24 08:06:05;;;;;;;21.77;15.77;;;21.40;99.90;;;;;;6257105;28;20048;-70
2022/06/24 08:09:07;;;;;;;16.08;13.18;;;21.60;99.90;;;;;;6259565;28;20060;-71
2022/06/24 08:12:09;;;;;;;18.88;13.57;;;21.70;99.90;;;;;;6257773;28;20048;-70
2022/06/24 08:15:14;;;;;;;15.02;11.63;;;21.80;99.90;;;;;;6264855;28;20401;-70
2022/06/24 08:18:22;;;;;;;13.00;7.55;;;21.80;99.90;;;;;;6265852;28;20424;-83
2022/06/24 08:21:24;;;;;;;89.38;22.23;;;21.70;99.90;;;;;;6266904;28;20134;-70
2022/06/24 08:24:26;;;;;;;761.83;54.17;;;21.90;99.90;;;;;;6265390;28;20073;-71
2022/06/24 08:27:28;;;;;;;26.92;13.07;;;22.10;99.90;;;;;;6269793;28;20511;-69
2022/06/24 08:30:31;;;;;;;15.30;12.05;;;22.00;99.90;;;;;;6268217;28;20052;-70
2022/06/24 08:33:33;;;;;;;;;;;21.80;99.90;;;;;;6269400;28;20049;-69
2022/06/24 08:36:36;;;;;;;12.02;7.10;;;21.80;99.90;;;;;;6266518;23;19926;-78
2022/06/24 08:39:37;;;;;;;17.55;12.90;;;21.90;99.90;;;;;;6184010;28;20472;-73
2022/06/24 08:42:40;;;;;;;17.45;13.38;;;21.70;99.90;;;;;;6175891;28;20443;-71
2022/06/24 08:45:43;;;;;;;18.00;13.15;;;21.50;99.90;;;;;;6160290;28;20047;-72
2022/06/24 08:48:46;;;;;;;18.02;12.82;;;21.20;99.90;;;;;;6177165;28;20050;-71
2022/06/24 08:51:49;;;;;;;19.95;14.32;;;21.20;99.90;;;;;;6160922;28;20449;-71
2022/06/24 08:54:52;;;;;;;22.50;15.95;;;21.30;99.90;;;;;;6160603;28;20050;-71
2022/06/24 08:57:54;;;;;;;19.48;14.65;;;21.30;99.90;;;;;;6160453;28;20046;-71
2022/06/24 09:00:57;;;;;;;20.75;14.63;;;21.20;99.90;;;;;;6177357;28;20054;-71
2022/06/24 09:03:59;;;;;;;12.50;10.63;;;21.20;99.90;;;;;;6177210;28;20527;-71
2022/06/24 09:07:02;;;;;;;11.05;7.97;;;21.20;99.90;;;;;;6177203;28;20512;-71
2022/06/24 09:10:09;;;;;;;13.15;8.80;;;21.40;99.90;;;;;;6160129;28;20492;-71
2022/06/24 09:13:20;;;;;;;15.27;13.50;;;21.50;99.90;;;;;;6176963;28;20074;-71
2022/06/24 09:16:26;;;;;;;14.63;11.20;;;21.70;99.90;;;;;;6159482;28;20062;-71
2022/06/24 09:19:37;;;;;;;10.40;7.32;;;21.70;99.90;;;;;;6175720;28;20061;-71
2022/06/24 09:22:39;;;;;;;18.38;14.75;;;21.70;99.90;;;;;;6159731;28;20062;-71
2022/06/24 09:25:43;;;;;;;18.52;13.38;;;21.60;99.90;;;;;;6177155;28;20054;-71
2022/06/24 09:28:48;;;;;;;19.60;13.68;;;21.40;99.90;;;;;;6175563;28;20046;-71
2022/06/24 09:31:51;;;;;;;6.95;5.38;;;21.30;99.90;;;;;;6175505;28;20140;-71
2022/06/24 09:35:01;;;;;;;20.63;15.93;;;21.20;99.90;;;;;;6159656;28;20062;-71
2022/06/24 09:38:03;;;;;;;19.00;14.00;;;21.20;99.90;;;;;;6176471;28;20054;-71
2022/06/24 09:41:05;;;;;;;21.95;17.08;;;21.10;99.90;;;;;;6176627;28;20050;-71
2022/06/24 09:44:09;;;;;;;20.65;16.27;;;21.00;99.90;;;;;;6176109;28;20404;-70
2022/06/24 09:47:12;;;;;;;22.33;17.58;;;20.70;99.90;;;;;;6176828;28;20047;-70
2022/06/24 09:50:14;;;;;;;9.43;6.90;;;20.50;99.90;;;;;;6175526;28;20058;-70
2022/06/24 09:53:17;;;;;;;21.48;17.25;;;20.50;99.90;;;;;;6176836;28;20051;-70
2022/06/24 09:56:20;;;;;;;17.65;12.52;;;20.60;99.90;;;;;;6175135;28;20043;-70
2022/06/24 10:02:44;;;;;;;29.52;19.10;;;20.80;99.90;;;;;;6176077;28;20788;-71
2022/06/24 10:05:48;;;;;;;22.35;18.23;;;21.00;99.90;;;;;;6176330;28;20047;-71
2022/06/24 10:08:50;;;;;;;24.40;16.73;;;20.90;99.90;;;;;;6174894;28;20054;-71
2022/06/24 10:11:54;;;;;;;22.08;17.88;;;20.80;99.90;;;;;;6175017;28;20046;-71
2022/06/24 10:14:59;;;;;;;25.38;19.60;;;20.70;99.90;;;;;;6175044;28;20062;-71
2022/06/24 10:18:08;;;;;;;23.70;19.45;;;20.70;99.90;;;;;;6175588;28;20424;-71
2022/06/24 10:21:12;;;;;;;23.92;18.77;;;20.60;99.90;;;;;;6174838;28;20507;-71
2022/06/24 10:24:15;;;;;;;26.08;17.55;;;20.60;99.90;;;;;;6158106;28;20058;-72
2022/06/24 10:27:17;;;;;;;23.30;17.95;;;20.60;99.90;;;;;;6175383;28;20068;-71
2022/06/24 10:30:53;;;;;;;22.23;17.40;;;20.50;99.90;;;;;;6174506;28;20062;-71
2022/06/24 10:33:57;;;;;;;22.30;19.27;;;20.50;99.90;;;;;;6175747;28;20049;-71
2022/06/24 10:37:02;;;;;;;24.85;20.58;;;20.50;99.90;;;;;;6175163;28;20054;-71
2022/06/24 10:40:05;;;;;;;22.90;19.08;;;20.70;99.90;;;;;;6175112;28;20062;-72
2022/06/24 10:43:07;;;;;;;7.55;6.50;;;21.00;99.90;;;;;;6174139;28;20058;-71
2022/06/24 10:46:21;;;;;;;23.88;18.17;;;21.20;99.90;;;;;;6174867;28;20058;-71
2022/06/24 10:49:25;;;;;;;22.33;17.90;;;21.50;99.90;;;;;;6175238;28;20047;-72
2022/06/24 10:52:31;;;;;;;21.83;17.67;;;21.60;99.90;;;;;;6174949;28;20178;-72
2022/06/24 10:55:41;;;;;;;20.15;17.23;;;21.60;99.90;;;;;;6173251;28;20059;-72
2022/06/24 10:58:43;;;;;;;18.92;16.30;;;21.70;99.90;;;;;;6173714;28;20061;-71
2022/06/24 11:01:46;;;;;;;18.95;15.73;;;21.90;99.90;;;;;;6173738;28;20051;-72
2022/06/24 11:04:49;;;;;;;23.85;17.63;;;21.90;99.90;;;;;;6174569;28;20059;-72
2022/06/24 11:07:51;;;;;;;14.43;12.38;;;21.90;99.90;;;;;;6174430;28;20055;-72
2022/06/24 11:10:54;;;;;;;7.43;4.60;;;21.90;99.90;;;;;;6174536;28;20051;-72
2022/06/24 11:13:56;;;;;;;5.13;3.75;;;22.00;99.90;;;;;;6157418;28;20415;-72
2022/06/24 11:16:58;;;;;;;5.47;3.42;;;22.60;99.90;;;;;;6156726;28;20057;-71
2022/06/24 11:20:01;;;;;;;4.40;2.88;;;22.90;99.90;;;;;;6174364;28;20055;-71
2022/06/24 11:23:08;;;;;;;7.78;1.45;;;22.90;99.90;;;;;;6174368;28;20074;-72
2022/06/24 11:26:12;;;;;;;6.63;1.92;;;21.50;99.90;;;;;;6174326;28;20415;-71
2022/06/24 11:29:14;;;;;;;5.30;1.42;;;21.70;99.90;;;;;;6174241;28;20415;-71
2022/06/24 11:32:17;;;;;;;7.03;1.70;;;21.40;99.90;;;;;;6156950;28;20057;-71
2022/06/24 11:35:22;;;;;;;6.65;1.85;;;21.00;99.90;;;;;;6174340;28;20061;-71
2022/06/24 11:38:24;;;;;;;5.07;1.20;;;20.30;99.90;;;;;;6173850;28;20058;-71
2022/06/24 11:41:30;;;;;;;5.13;1.05;;;19.70;99.90;;;;;;6174177;28;20050;-71
2022/06/24 11:44:36;;;;;;;3.65;1.05;;;19.40;99.90;;;;;;6156712;28;20057;-71
2022/06/24 11:47:38;;;;;;;4.55;2.50;;;19.20;99.90;;;;;;6156810;28;20524;-70
2022/06/24 11:50:41;;;;;;;4.43;1.45;;;19.10;99.90;;;;;;6173963;28;20059;-70
2022/06/24 11:53:56;;;;;;;3.13;1.13;;;19.00;99.90;;;;;;6174284;28;20510;-70
2022/06/24 11:56:59;;;;;;;3.20;2.03;;;19.00;99.90;;;;;;6174512;28;20167;-70
2022/06/24 12:00:02;;;;;;;2.97;0.82;;;19.00;99.90;;;;;;6157153;28;20074;-70
2022/06/24 12:03:06;;;;;;;5.07;1.90;;;19.10;99.90;;;;;;6156800;28;20134;-70
2022/06/24 12:06:10;;;;;;;3.20;1.90;;;19.20;99.90;;;;;;6157920;28;20047;-70
2022/06/24 12:09:13;;;;;;;5.78;1.95;;;19.40;99.90;;;;;;6153997;29;20055;-70
2022/06/24 12:12:15;;;;;;;3.67;2.13;;;19.30;99.90;;;;;;6153958;29;20058;-70
2022/06/24 12:15:17;;;;;;;3.90;2.50;;;19.40;99.90;;;;;;6154712;29;20055;-70
2022/06/24 12:18:22;;;;;;;4.88;3.47;;;19.70;99.90;;;;;;6154301;29;20070;-71
2022/06/24 12:21:28;;;;;;;6.05;3.85;;;19.90;99.90;;;;;;6154639;29;20062;-71
2022/06/24 12:24:30;;;;;;;6.03;4.13;;;20.30;99.90;;;;;;6154369;29;20530;-71
2022/06/24 12:27:33;;;;;;;3.55;2.58;;;20.50;99.90;;;;;;6154301;29;20086;-71
2022/06/24 12:30:36;;;;;;;;;;;20.70;99.90;;;;;;6154658;29;20058;-71
2022/06/24 12:33:49;;;;;;;4.30;2.25;;;21.00;99.90;;;;;;6154627;29;19922;-71
2022/06/24 12:36:55;;;;;;;;;;;21.00;99.90;;;;;;6154613;28;20058;-71
2022/06/24 12:39:57;;;;;;;2.92;2.13;;;20.70;99.90;;;;;;6154164;29;19929;-71
2022/06/24 12:43:07;;;;;;;6.03;2.28;;;19.80;99.90;;;;;;6152963;29;20143;-71
2022/06/24 12:46:09;;;;;;;3.08;2.63;;;19.30;99.90;;;;;;6153669;29;20078;-71
2022/06/24 12:52:38;;;;;;;5.00;3.20;;;19.20;99.90;;;;;;6154080;29;20047;-71
2022/06/24 12:55:40;;;;;;;4.13;2.60;;;19.00;99.90;;;;;;6152595;29;20059;-71
2022/06/24 12:58:42;;;;;;;4.88;3.42;;;18.80;99.90;;;;;;6153865;29;20043;-71
2022/06/24 13:01:46;;;;;;;4.25;3.22;;;18.70;99.90;;;;;;6153522;29;20070;-70
2022/06/24 13:04:48;;;;;;;4.85;2.85;;;18.70;99.90;;;;;;6152204;29;20051;-71
2022/06/24 13:07:52;;;;;;;4.68;2.05;;;18.80;99.90;;;;;;6165760;28;20133;-71
2022/06/24 13:10:54;;;;;;;4.82;2.65;;;19.10;99.90;;;;;;6177376;28;20424;-71
2022/06/24 13:13:56;;;;;;;3.67;2.60;;;19.60;99.90;;;;;;6177271;28;20055;-71
2022/06/24 13:16:58;;;;;;;3.38;2.20;;;19.70;99.90;;;;;;6159998;28;20444;-71
2022/06/24 13:20:00;;;;;;;4.40;3.03;;;19.80;99.90;;;;;;6176981;28;20055;-71
2022/06/24 13:23:03;;;;;;;4.05;2.22;;;20.20;99.90;;;;;;6177042;28;20491;-71
2022/06/24 13:26:05;;;;;;;3.45;2.53;;;20.30;99.90;;;;;;6159896;28;20058;-72
2022/06/24 13:29:07;;;;;;;4.90;3.47;;;20.10;99.90;;;;;;6177306;28;20181;-71
2022/06/24 13:32:09;;;;;;;3.53;2.25;;;20.10;99.90;;;;;;6159600;28;20054;-72
2022/06/24 13:35:12;;;;;;;4.45;2.90;;;19.90;99.90;;;;;;6176817;28;20055;-71
2022/06/24 13:38:15;;;;;;;5.37;3.20;;;19.60;99.90;;;;;;6176725;28;20061;-71
2022/06/24 13:41:17;;;;;;;3.85;2.85;;;19.30;99.90;;;;;;6176668;28;20458;-72
2022/06/24 13:44:20;;;;;;;4.93;3.10;;;19.10;99.90;;;;;;6176736;28;20054;-71
2022/06/24 13:47:22;;;;;;;6.95;3.63;;;19.10;99.90;;;;;;6159205;28;20058;-72
2022/06/24 13:50:24;;;;;;;6.03;3.38;;;19.20;99.90;;;;;;6176581;28;20050;-72
2022/06/24 13:53:27;;;;;;;6.80;3.97;;;19.30;99.90;;;;;;6176291;28;20051;-71
2022/06/24 13:56:29;;;;;;;4.13;2.80;;;19.40;99.90;;;;;;6176291;28;20051;-72
2022/06/24 13:59:31;;;;;;;4.30;3.17;;;19.40;99.90;;;;;;6176194;28;20051;-72
2022/06/24 14:02:33;;;;;;;2.97;2.20;;;19.50;99.90;;;;;;6176379;28;20134;-71
2022/06/24 14:05:35;;;;;;;5.10;3.50;;;19.60;99.90;;;;;;6175953;28;20055;-72
2022/06/24 14:08:39;;;;;;;4.80;3.53;;;19.80;99.90;;;;;;6158545;28;20074;-71
2022/06/24 14:11:40;;;;;;;5.15;4.15;;;20.00;99.90;;;;;;6176239;28;20054;-72
2022/06/24 14:14:42;;;;;;;6.80;3.95;;;20.40;99.90;;;;;;6175783;28;20051;-72
2022/06/24 14:17:44;;;;;;;4.80;3.47;;;20.40;99.90;;;;;;6175951;28;20054;-72
2022/06/24 14:20:46;;;;;;;3.85;2.67;;;20.30;99.90;;;;;;6175681;28;20046;-72
2022/06/24 14:27:10;;;;;;;4.43;2.53;;;20.30;99.90;;;;;;6175233;28;20051;-72
2022/06/24 14:30:12;;;;;;;;;;;20.40;99.90;;;;;;6176338;28;20050;-72
2022/06/24 14:33:17;;;;;;;4.43;2.55;;;20.50;99.90;;;;;;6175284;28;19922;-72
2022/06/24 14:36:19;;;;;;;4.60;3.28;;;20.40;99.90;;;;;;6175233;28;20035;-72
2022/06/24 14:42:42;;;;;;;4.63;3.25;;;20.90;99.90;;;;;;6175315;28;20043;-72
2022/06/24 14:45:44;;;;;;;2.22;1.60;;;21.00;99.90;;;;;;6157626;28;20055;-72
2022/06/24 14:48:46;;;;;;;9.80;3.97;;;21.10;99.90;;;;;;6175074;28;20051;-72
2022/06/24 14:51:49;;;;;;;5.95;4.00;;;21.40;99.90;;;;;;6175061;28;20050;-72
2022/06/24 14:54:52;;;;;;;8.95;5.15;;;21.60;99.90;;;;;;6174853;28;20496;-72
2022/06/24 14:57:54;;;;;;;4.85;2.97;;;21.70;99.90;;;;;;6174914;28;20125;-72
2022/06/24 15:00:56;;;;;;;5.63;3.70;;;21.70;99.90;;;;;;6174926;28;20046;-72
2022/06/24 15:03:58;;;;;;;4.43;3.13;;;21.80;99.90;;;;;;6174837;28;20058;-72
2022/06/24 15:07:00;;;;;;;2.60;1.90;;;21.90;99.90;;;;;;6174548;28;20042;-72
2022/06/24 15:10:05;;;;;;;4.35;3.08;;;22.00;99.90;;;;;;6174683;28;20050;-72
2022/06/24 15:13:07;;;;;;;2.88;1.73;;;22.30;99.90;;;;;;6157086;28;20058;-72
2022/06/24 15:16:09;;;;;;;4.93;2.55;;;22.50;99.90;;;;;;6174530;28;20510;-72
2022/06/24 15:19:11;;;;;;;4.50;3.90;;;22.90;99.90;;;;;;6174181;28;20047;-72
2022/06/24 15:22:14;;;;;;;4.75;3.90;;;23.20;99.90;;;;;;6174223;28;20542;-72
2022/06/24 15:25:17;;;;;;;3.42;1.70;;;23.10;99.90;;;;;;6174111;28;20047;-72
2022/06/24 15:28:19;;;;;;;5.57;3.80;;;23.20;99.90;;;;;;6174514;28;20050;-71
2022/06/24 15:31:21;;;;;;;4.85;3.42;;;23.40;99.90;;;;;;6174178;28;20382;-72
2022/06/24 15:34:23;;;;;;;6.20;4.75;;;23.50;99.90;;;;;;6156975;28;20043;-71
2022/06/24 15:37:25;;;;;;;2.28;1.73;;;23.50;99.90;;;;;;6156504;28;20050;-72
2022/06/24 15:40:28;;;;;;;6.82;5.00;;;23.50;99.90;;;;;;6156577;28;20137;-72
2022/06/24 15:43:30;;;;;;;;;;;23.60;99.90;;;;;;6157535;28;20054;-72
2022/06/24 15:46:32;;;;;;;2.22;1.80;;;23.60;99.90;;;;;;6173714;28;19922;-72
2022/06/24 15:49:34;;;;;;;5.05;4.32;;;23.60;99.90;;;;;;6173995;28;20057;-72
2022/06/24 15:52:36;;;;;;;2.95;2.65;;;23.70;99.90;;;;;;6156830;28;20046;-72
2022/06/24 15:55:39;;;;;;;7.65;5.22;;;23.70;99.90;;;;;;6156642;28;20194;-72
2022/06/24 15:58:41;;;;;;;9.30;8.23;;;23.70;99.90;;;;;;6173895;28;20060;-72
2022/06/24 16:01:43;;;;;;;9.80;8.63;;;23.60;99.90;;;;;;6156365;28;20055;-72
2022/06/24 16:04:45;;;;;;;12.02;8.77;;;23.70;99.90;;;;;;6173985;28;20050;-72
2022/06/24 16:07:47;;;;;;;2.63;1.65;;;23.50;99.90;;;;;;6173562;28;20043;-72